Time;durP1;ratioP1;P1;durP2;ratioP2;P2;SDS_P1;SDS_P2;PMS_P1;PMS_P2;Temp;Humidity;BMP_temperature;BMP_pressure;BME280_temperature;BME280_humidity;BME280_pressure;Samples;Min_cycle;Max_cycle;Signal;HPM_P1;HPM_P2
2022/02/02 00:01:14;;;;;;;6.07;1.95;;;26.70;67.60;;;;;;4165429;28;20047;-70
2022/02/02 00:03:36;;;;;;;9.18;2.38;;;26.60;67.60;;;;;;4161830;28;20052;-71
2022/02/02 00:08:59;;;;;;;11.75;2.90;;;26.60;67.70;;;;;;4160408;28;20052;-67
2022/02/02 00:16:34;;;;;;;7.07;2.20;;;26.60;67.70;;;;;;4166419;28;20148;-70
2022/02/02 00:18:57;;;;;;;11.35;2.47;;;26.60;67.70;;;;;;4166839;28;20152;-69
2022/02/02 00:23:51;;;;;;;15.85;2.55;;;26.60;67.70;;;;;;4164811;28;20422;-70
2022/02/02 00:26:20;;;;;;;5.38;2.10;;;26.60;67.60;;;;;;4164664;28;20045;-69
2022/02/02 00:28:47;;;;;;;8.35;2.47;;;26.60;67.70;;;;;;4153624;28;20053;-69
2022/02/02 00:31:15;;;;;;;5.30;2.15;;;26.60;67.70;;;;;;4171622;28;20037;-72
2022/02/02 00:33:43;;;;;;;6.07;2.10;;;26.60;67.40;;;;;;4157755;28;20050;-70
2022/02/02 00:36:11;;;;;;;5.93;2.20;;;26.60;67.20;;;;;;4163722;28;20075;-71
2022/02/02 00:38:33;;;;;;;7.15;2.42;;;26.60;67.30;;;;;;4170033;28;20044;-70
2022/02/02 00:40:56;;;;;;;7.07;2.30;;;26.50;67.70;;;;;;4168614;28;20153;-71
2022/02/02 00:43:18;;;;;;;10.32;3.30;;;26.50;68.10;;;;;;4170648;28;20045;-71
2022/02/02 00:45:46;;;;;;;8.25;2.72;;;26.50;68.20;;;;;;4168267;28;20044;-72
2022/02/02 00:48:10;;;;;;;8.15;2.78;;;26.50;68.50;;;;;;4160377;28;20041;-69
2022/02/02 00:50:32;;;;;;;6.25;2.22;;;26.60;67.90;;;;;;4166175;28;20464;-70
2022/02/02 00:52:55;;;;;;;7.00;2.42;;;26.50;67.30;;;;;;4171906;28;20041;-70
2022/02/02 00:55:19;;;;;;;6.43;2.40;;;26.50;67.00;;;;;;4160268;28;20151;-70
2022/02/02 00:57:44;;;;;;;5.53;2.10;;;26.50;67.00;;;;;;4163491;28;20051;-71
2022/02/02 01:00:08;;;;;;;5.88;2.22;;;26.50;67.00;;;;;;4162472;28;20811;-80
2022/02/02 01:02:30;;;;;;;8.20;2.60;;;26.50;66.90;;;;;;4100493;28;20570;-74
2022/02/02 01:04:52;;;;;;;10.32;2.70;;;26.50;67.10;;;;;;4148164;28;20033;-70
2022/02/02 01:07:24;;;;;;;10.30;2.70;;;26.50;67.30;;;;;;4158758;28;20157;-70
2022/02/02 01:10:38;;;;;;;11.02;3.25;;;26.50;67.20;;;;;;4162273;28;20594;-75
2022/02/02 01:27:50;;;;;;;13.55;6.72;;;26.30;67.10;;;;;;4144817;28;20072;-76
2022/02/02 01:30:13;;;;;;;17.42;6.43;;;26.30;66.90;;;;;;4128151;28;20041;-73
2022/02/02 01:32:35;;;;;;;13.37;6.03;;;26.30;66.50;;;;;;4121548;28;20037;-80
2022/02/02 01:34:58;;;;;;;16.55;6.53;;;26.30;66.70;;;;;;4097939;28;20280;-73
2022/02/02 01:37:21;;;;;;;12.23;5.05;;;26.30;66.60;;;;;;4109278;28;20073;-74
2022/02/02 01:39:44;;;;;;;11.13;4.30;;;26.30;66.50;;;;;;4115288;28;20046;-79
2022/02/02 01:42:12;;;;;;;13.93;4.55;;;26.30;66.60;;;;;;4123142;28;20287;-78
2022/02/02 01:44:44;;;;;;;14.27;3.83;;;26.30;66.60;;;;;;4108959;28;20038;-82
2022/02/02 01:47:08;;;;;;;12.30;3.75;;;26.30;66.60;;;;;;4109056;28;20038;-75
2022/02/02 01:54:57;;;;;;;9.15;2.75;;;26.20;66.20;;;;;;4103246;28;20135;-75
2022/02/02 02:00:00;;;;;;;7.95;2.80;;;26.30;66.50;;;;;;4120997;28;20042;-76
2022/02/02 02:02:23;;;;;;;9.98;2.55;;;26.30;66.70;;;;;;4118217;28;20919;-73
2022/02/02 02:04:49;;;;;;;7.93;2.67;;;26.30;66.50;;;;;;4126605;28;20176;-75
2022/02/02 02:07:11;;;;;;;9.82;2.65;;;26.30;66.40;;;;;;4111333;28;20128;-75
2022/02/02 02:09:34;;;;;;;7.97;3.08;;;26.30;66.20;;;;;;4126444;28;20037;-80
2022/02/02 02:12:01;;;;;;;8.40;2.63;;;26.30;66.00;;;;;;4115687;28;20037;-76
2022/02/02 02:16:58;;;;;;;9.75;2.90;;;26.30;65.80;;;;;;4118029;28;20053;-78
2022/02/02 02:19:23;;;;;;;10.63;2.88;;;26.30;65.80;;;;;;4118412;28;20034;-76
2022/02/02 02:21:48;;;;;;;10.68;3.28;;;26.30;65.70;;;;;;4122767;28;20065;-81
2022/02/02 02:24:11;;;;;;;29.92;3.78;;;26.30;65.60;;;;;;4112375;28;20045;-76
2022/02/02 02:26:39;;;;;;;11.57;2.70;;;26.30;65.60;;;;;;4138231;28;20159;-76
2022/02/02 02:31:37;;;;;;;12.25;3.10;;;26.30;64.90;;;;;;4127958;28;20140;-77
2022/02/02 02:37:37;;;;;;;12.38;2.70;;;26.30;65.20;;;;;;4122085;28;20045;-81
2022/02/02 03:29:59;;;;;;;8.15;2.90;;;26.20;63.60;;;;;;4124352;28;20179;-80
2022/02/02 03:53:54;;;;;;;6.25;2.20;;;26.20;64.90;;;;;;4122752;28;20095;-66
2022/02/02 04:04:11;;;;;;;7.72;2.45;;;26.20;64.10;;;;;;4133624;28;20068;-68
2022/02/02 04:06:43;;;;;;;7.50;2.65;;;26.20;64.10;;;;;;4127023;28;21045;-68
2022/02/02 04:09:06;;;;;;;8.02;2.33;;;26.20;64.00;;;;;;4129034;28;20037;-70
2022/02/02 04:11:48;;;;;;;7.53;2.53;;;26.20;64.00;;;;;;4129959;28;20429;-72
2022/02/02 04:15:22;;;;;;;9.57;2.50;;;26.20;64.10;;;;;;4127739;28;20036;-70
2022/02/02 04:54:17;;;;;;;5.10;2.00;;;26.10;63.50;;;;;;4123951;28;20135;-66
2022/02/02 04:59:18;;;;;;;8.82;2.40;;;26.00;63.50;;;;;;4133383;28;20079;-67
2022/02/02 05:05:11;;;;;;;7.38;2.60;;;26.00;63.70;;;;;;4110504;28;20153;-67
2022/02/02 05:10:16;;;;;;;9.45;2.45;;;26.00;63.60;;;;;;4102741;28;20099;-66
2022/02/02 05:18:13;;;;;;;6.97;2.20;;;26.00;63.20;;;;;;4123468;28;20080;-70
2022/02/02 05:43:03;;;;;;;8.70;2.67;;;26.00;63.60;;;;;;4143929;28;20497;-73
2022/02/02 05:45:24;;;;;;;7.05;2.50;;;26.00;63.50;;;;;;4141090;28;20045;-74
2022/02/02 05:50:38;;;;;;;9.20;2.33;;;26.00;63.50;;;;;;4133350;28;20073;-73
2022/02/02 05:53:02;;;;;;;7.35;2.30;;;26.00;63.50;;;;;;4129204;28;20080;-70
2022/02/02 05:55:24;;;;;;;8.73;2.55;;;26.00;63.40;;;;;;4129207;28;20045;-72
2022/02/02 05:57:47;;;;;;;5.05;2.15;;;26.00;63.70;;;;;;4138952;28;20488;-71
2022/02/02 06:00:10;;;;;;;8.05;2.92;;;26.00;63.60;;;;;;4130573;28;20045;-72
2022/02/02 06:02:38;;;;;;;8.47;2.43;;;26.00;63.50;;;;;;4129020;28;20053;-73
2022/02/02 06:05:05;;;;;;;7.55;2.40;;;26.00;63.50;;;;;;4138749;28;20283;-70
2022/02/02 06:07:28;;;;;;;6.53;2.60;;;26.00;63.50;;;;;;4130312;28;20048;-71
2022/02/02 06:09:51;;;;;;;8.13;2.63;;;25.90;63.30;;;;;;4138086;28;20048;-71
2022/02/02 06:12:19;;;;;;;6.10;2.40;;;25.90;63.40;;;;;;4132684;28;20065;-73
2022/02/02 06:14:44;;;;;;;6.97;2.10;;;25.90;63.50;;;;;;4113078;28;20310;-69
2022/02/02 06:17:08;;;;;;;5.93;2.67;;;25.90;63.60;;;;;;4139076;28;20033;-72
2022/02/02 06:19:31;;;;;;;7.00;2.42;;;25.90;63.60;;;;;;4130227;28;20021;-75
2022/02/02 06:22:22;;;;;;;8.00;2.45;;;25.90;63.60;;;;;;4137367;28;20104;-72
2022/02/02 06:24:56;;;;;;;6.68;2.50;;;25.90;63.70;;;;;;4141119;28;20506;-73
2022/02/02 06:27:26;;;;;;;7.50;2.88;;;25.80;63.70;;;;;;4130960;28;20052;-75
2022/02/02 06:30:04;;;;;;;6.00;2.28;;;25.80;63.70;;;;;;4136417;28;20044;-75
2022/02/02 06:32:29;;;;;;;8.30;2.47;;;25.80;63.80;;;;;;4137748;28;20037;-75
2022/02/02 06:34:56;;;;;;;8.82;2.50;;;25.80;63.80;;;;;;4130974;28;20112;-75
2022/02/02 06:37:18;;;;;;;6.55;2.90;;;25.80;63.90;;;;;;4137248;28;20040;-77
2022/02/02 06:39:41;;;;;;;8.30;2.78;;;25.80;64.00;;;;;;4145027;28;20127;-79
2022/02/02 06:42:07;;;;;;;7.13;2.67;;;25.70;63.90;;;;;;4132523;28;20044;-78
2022/02/02 06:44:29;;;;;;;6.25;2.45;;;25.70;63.90;;;;;;4137622;28;20049;-77
2022/02/02 06:46:52;;;;;;;6.37;2.33;;;25.70;63.90;;;;;;4130653;28;20049;-76
2022/02/02 06:49:15;;;;;;;6.63;2.30;;;25.70;64.00;;;;;;4115026;28;20040;-81
2022/02/02 06:51:50;;;;;;;5.38;2.20;;;25.70;64.00;;;;;;4127632;28;21100;-76
2022/02/02 06:54:21;;;;;;;8.02;2.90;;;25.70;64.20;;;;;;4133271;28;20044;-78
2022/02/02 06:56:52;;;;;;;7.40;2.80;;;25.70;64.30;;;;;;4136804;28;20057;-74
2022/02/02 06:59:42;;;;;;;5.80;2.63;;;25.60;64.40;;;;;;4133530;28;20144;-77
2022/02/02 07:05:11;;;;;;;7.40;2.63;;;25.60;64.80;;;;;;4129206;28;20037;-77
2022/02/02 07:13:21;;;;;;;8.35;2.78;;;25.60;65.10;;;;;;4134218;28;20102;-78
2022/02/02 07:28:29;;;;;;;7.05;2.40;;;25.50;65.00;;;;;;4134294;28;20055;-75
2022/02/02 07:33:30;;;;;;;5.70;1.85;;;25.50;65.20;;;;;;4125162;28;20529;-73
2022/02/02 07:36:21;;;;;;;7.25;2.08;;;25.50;65.20;;;;;;4128639;28;20061;-73
2022/02/02 07:39:01;;;;;;;6.30;2.35;;;25.50;65.20;;;;;;4121033;28;20049;-76
2022/02/02 07:41:33;;;;;;;7.15;2.53;;;25.50;65.50;;;;;;4126275;28;20033;-72
2022/02/02 07:44:01;;;;;;;7.68;2.28;;;25.50;65.50;;;;;;4125589;28;20144;-74
2022/02/02 07:46:27;;;;;;;5.00;2.10;;;25.50;65.50;;;;;;4123287;28;20550;-73
2022/02/02 07:48:50;;;;;;;7.00;2.42;;;25.40;65.70;;;;;;4122559;28;20048;-76
2022/02/02 07:51:14;;;;;;;7.40;2.42;;;25.50;65.80;;;;;;4133534;28;20130;-73
2022/02/02 07:53:46;;;;;;;5.93;2.00;;;25.40;65.50;;;;;;4125290;28;20048;-76
2022/02/02 07:56:15;;;;;;;14.15;2.58;;;25.40;65.60;;;;;;4131819;28;20055;-82
2022/02/02 07:58:41;;;;;;;6.40;1.95;;;25.40;65.70;;;;;;4122463;28;20078;-74
2022/02/02 08:01:06;;;;;;;6.82;2.00;;;25.40;65.60;;;;;;4125997;28;21047;-76
2022/02/02 08:03:37;;;;;;;14.05;2.65;;;25.40;65.60;;;;;;4122321;28;20049;-78
2022/02/02 08:06:02;;;;;;;6.13;2.00;;;25.40;65.70;;;;;;4126641;28;20048;-75
2022/02/02 08:08:30;;;;;;;6.60;1.85;;;25.40;65.70;;;;;;4117022;28;20057;-74
2022/02/02 08:10:55;;;;;;;6.18;2.30;;;25.40;65.40;;;;;;4120294;28;20064;-77
2022/02/02 08:13:22;;;;;;;6.72;2.30;;;25.40;65.80;;;;;;4124713;28;20038;-74
2022/02/02 08:15:50;;;;;;;5.03;2.00;;;25.30;65.60;;;;;;4123195;28;20451;-74
2022/02/02 08:18:13;;;;;;;3.92;1.95;;;25.30;65.50;;;;;;4120975;28;20046;-74
2022/02/02 08:20:36;;;;;;;6.00;2.05;;;25.30;65.60;;;;;;4123287;28;20124;-72
2022/02/02 08:22:58;;;;;;;7.63;2.28;;;25.30;65.00;;;;;;4126065;28;20040;-73
2022/02/02 08:25:29;;;;;;;7.72;2.15;;;25.30;65.80;;;;;;4134032;28;20147;-76
2022/02/02 08:27:53;;;;;;;8.30;2.42;;;25.30;66.00;;;;;;4109920;28;20056;-75
2022/02/02 08:30:16;;;;;;;5.82;2.25;;;25.30;66.10;;;;;;4134373;28;20033;-76
2022/02/02 08:32:57;;;;;;;5.75;2.10;;;25.30;66.00;;;;;;4129494;28;20640;-86
2022/02/02 08:35:21;;;;;;;6.68;2.03;;;25.30;65.90;;;;;;4132988;28;20864;-75
2022/02/02 08:37:48;;;;;;;6.50;2.00;;;25.30;65.80;;;;;;4124390;28;20140;-77
2022/02/02 08:40:26;;;;;;;6.78;2.45;;;25.30;65.80;;;;;;4134406;28;20034;-75
2022/02/02 08:42:49;;;;;;;10.23;2.17;;;25.30;65.90;;;;;;4123111;28;20124;-82
2022/02/02 08:45:18;;;;;;;5.05;1.77;;;25.30;65.70;;;;;;4130885;28;20502;-78
2022/02/02 08:47:46;;;;;;;8.90;2.08;;;25.30;65.70;;;;;;4111332;28;20128;-77
2022/02/02 08:50:09;;;;;;;5.65;2.47;;;25.20;65.70;;;;;;4131334;28;20041;-77
2022/02/02 08:52:48;;;;;;;5.13;1.83;;;25.20;65.80;;;;;;4121715;28;20331;-75
2022/02/02 08:55:11;;;;;;;4.55;2.00;;;25.20;65.70;;;;;;4124122;28;20196;-78
2022/02/02 08:57:57;;;;;;;7.25;2.60;;;25.20;66.00;;;;;;4126293;28;20049;-78
2022/02/02 09:00:24;;;;;;;7.65;2.08;;;25.20;65.80;;;;;;4119569;28;20195;-79
2022/02/02 09:05:17;;;;;;;7.68;2.53;;;25.20;65.70;;;;;;4122239;28;20916;-78
2022/02/02 09:05:31;;;;;;;6.43;2.47;;;25.10;65.90;;;;;;4133499;28;20045;-76
2022/02/02 09:07:55;;;;;;;6.95;2.65;;;25.10;66.00;;;;;;4130675;28;20041;-73
2022/02/02 09:24:08;;;;;;;6.00;1.98;;;25.20;64.80;;;;;;4127638;28;20078;-73
2022/02/02 09:32:19;;;;;;;6.55;2.72;;;25.20;65.40;;;;;;4126981;28;20049;-74
2022/02/02 09:34:52;;;;;;;6.88;2.72;;;25.20;65.40;;;;;;4130815;28;21314;-72
2022/02/02 09:37:16;;;;;;;7.18;2.75;;;25.10;65.20;;;;;;4134161;28;21143;-74
2022/02/02 09:39:48;;;;;;;8.50;2.88;;;25.10;65.20;;;;;;4126783;28;20154;-75
2022/02/02 09:42:15;;;;;;;6.95;2.22;;;25.10;65.20;;;;;;4133034;28;20067;-74
2022/02/02 09:44:41;;;;;;;6.95;2.67;;;25.10;65.20;;;;;;4113085;28;20064;-74
2022/02/02 09:50:14;;;;;;;8.30;2.58;;;25.10;65.10;;;;;;4117702;28;20096;-72
2022/02/02 09:52:41;;;;;;;5.43;2.55;;;25.10;65.20;;;;;;4133230;28;20176;-75
2022/02/02 09:55:14;;;;;;;6.53;2.20;;;25.10;65.20;;;;;;4125537;28;20044;-78
2022/02/02 10:08:48;;;;;;;5.13;2.10;;;25.00;65.10;;;;;;4135454;28;20144;-72
2022/02/02 10:15:24;;;;;;;7.55;2.67;;;25.10;65.20;;;;;;4134328;28;20153;-73
2022/02/02 10:17:54;;;;;;;7.75;2.38;;;25.00;65.10;;;;;;4124859;28;20094;-74
2022/02/02 10:20:25;;;;;;;5.95;1.88;;;25.10;65.20;;;;;;4135975;28;20043;-73
2022/02/02 10:22:50;;;;;;;6.13;2.22;;;25.10;65.10;;;;;;4129172;28;20100;-73
2022/02/02 10:25:47;;;;;;;6.43;2.05;;;25.00;65.10;;;;;;4137279;28;20045;-74
2022/02/02 10:28:20;;;;;;;7.15;2.10;;;25.10;65.60;;;;;;4127011;28;20049;-73
2022/02/02 10:30:48;;;;;;;5.07;1.83;;;25.00;65.10;;;;;;4134749;28;21655;-77
2022/02/02 10:33:17;;;;;;;5.93;2.20;;;25.00;65.00;;;;;;4124100;28;20041;-74
2022/02/02 10:35:45;;;;;;;6.38;2.50;;;25.00;65.10;;;;;;4134730;28;20949;-76
2022/02/02 10:38:14;;;;;;;5.07;2.13;;;25.00;65.00;;;;;;4115289;28;20129;-74
2022/02/02 10:43:34;;;;;;;5.47;2.00;;;25.00;65.00;;;;;;4123031;28;20037;-76
2022/02/02 10:45:56;;;;;;;8.63;2.25;;;25.10;64.90;;;;;;4125106;28;20037;-73
2022/02/02 10:48:33;;;;;;;5.22;2.05;;;25.00;64.80;;;;;;4132604;28;20049;-74
2022/02/02 10:51:08;;;;;;;5.22;2.33;;;25.10;64.90;;;;;;4122456;28;20118;-75
2022/02/02 10:53:46;;;;;;;5.78;2.00;;;25.00;64.80;;;;;;4125801;28;20113;-75
2022/02/02 10:56:26;;;;;;;3.88;1.73;;;25.00;64.70;;;;;;4111602;28;20051;-73
2022/02/02 11:06:43;;;;;;;6.78;2.20;;;25.00;64.80;;;;;;4129565;28;20060;-74
2022/02/02 11:09:08;;;;;;;3.70;1.70;;;25.00;64.80;;;;;;4119926;28;20045;-75
2022/02/02 11:11:31;;;;;;;4.07;1.83;;;25.00;64.80;;;;;;4129433;28;20049;-74
2022/02/02 11:14:01;;;;;;;6.27;2.07;;;25.00;65.10;;;;;;4117467;28;20045;-74
2022/02/02 11:16:30;;;;;;;3.42;1.55;;;25.00;64.70;;;;;;4122438;28;20042;-72
2022/02/02 11:18:54;;;;;;;3.70;1.52;;;25.00;65.00;;;;;;4118027;28;20042;-72
2022/02/02 11:21:18;;;;;;;7.07;2.10;;;24.90;64.60;;;;;;4118467;28;20079;-73
2022/02/02 11:23:45;;;;;;;9.50;2.35;;;24.90;64.40;;;;;;4128281;28;20052;-76
2022/02/02 11:26:07;;;;;;;7.13;2.58;;;24.90;64.00;;;;;;4117971;28;20038;-81
2022/02/02 11:28:36;;;;;;;6.35;2.10;;;24.90;63.90;;;;;;4122235;28;20124;-78
2022/02/02 11:31:09;;;;;;;7.85;2.50;;;24.90;63.80;;;;;;4118539;28;20045;-73
2022/02/02 11:33:46;;;;;;;10.63;2.85;;;24.90;64.10;;;;;;4122398;28;20151;-72
2022/02/02 11:36:42;;;;;;;7.60;2.30;;;24.90;64.30;;;;;;4116262;28;20070;-72
2022/02/02 11:39:35;;;;;;;8.25;1.92;;;24.80;64.30;;;;;;4122078;28;20041;-72
2022/02/02 11:42:10;;;;;;;6.28;1.77;;;24.80;64.40;;;;;;4114446;28;20360;-72
2022/02/02 11:44:43;;;;;;;5.82;2.05;;;24.80;64.40;;;;;;4123932;28;20035;-73
2022/02/02 11:50:01;;;;;;;3.85;1.67;;;24.80;64.50;;;;;;4117176;28;20036;-73
2022/02/02 11:52:37;;;;;;;6.40;2.08;;;24.80;64.00;;;;;;4117312;28;20049;-74
2022/02/02 11:55:00;;;;;;;5.22;1.83;;;24.80;64.50;;;;;;4127933;28;20674;-72
2022/02/02 11:57:26;;;;;;;5.88;1.92;;;24.70;64.00;;;;;;4117680;28;20033;-71
2022/02/02 11:59:57;;;;;;;6.25;1.92;;;24.70;64.50;;;;;;4090820;28;20054;-72
2022/02/02 12:05:51;;;;;;;5.88;2.28;;;24.70;64.50;;;;;;4124093;28;20074;-73
2022/02/02 12:35:58;;;;;;;5.45;2.10;;;24.60;64.50;;;;;;4130514;28;20689;-71
2022/02/02 12:47:07;;;;;;;4.88;2.00;;;24.50;64.50;;;;;;4127541;28;20044;-72
2022/02/02 12:57:49;;;;;;;6.25;2.08;;;24.50;64.50;;;;;;4107539;28;20909;-73
2022/02/02 13:00:23;;;;;;;3.53;1.77;;;24.50;64.50;;;;;;4125221;28;20041;-71
2022/02/02 13:03:02;;;;;;;4.30;1.63;;;24.50;64.50;;;;;;4134865;28;20071;-72
2022/02/02 13:05:25;;;;;;;12.55;2.35;;;24.50;64.60;;;;;;4128119;28;20107;-72
2022/02/02 13:07:52;;;;;;;3.83;2.13;;;24.50;64.50;;;;;;4132469;28;20053;-67
2022/02/02 13:10:26;;;;;;;4.07;1.88;;;24.40;64.50;;;;;;4128567;28;20040;-69
2022/02/02 13:15:40;;;;;;;3.90;1.70;;;24.40;64.80;;;;;;4127295;28;20053;-69
2022/02/02 13:18:19;;;;;;;5.25;1.83;;;24.40;64.50;;;;;;4127006;28;20047;-69
2022/02/02 13:26:34;;;;;;;2.83;1.67;;;24.40;64.40;;;;;;4123509;28;19963;-66
2022/02/02 13:29:06;;;;;;;4.10;1.50;;;24.40;64.50;;;;;;4125768;28;20036;-66
2022/02/02 13:42:18;;;;;;;5.45;1.83;;;24.30;64.30;;;;;;4129609;28;20120;-66
2022/02/02 13:45:04;;;;;;;6.47;1.98;;;24.30;64.30;;;;;;4130096;28;20489;-65
2022/02/02 13:53:07;;;;;;;4.47;2.08;;;24.20;63.80;;;;;;4130117;28;20183;-66
2022/02/02 13:56:03;;;;;;;6.15;2.30;;;24.20;64.50;;;;;;4118378;28;20169;-67
2022/02/02 14:01:30;;;;;;;4.78;1.95;;;24.20;64.40;;;;;;4107332;28;20103;-67
2022/02/02 14:03:57;;;;;;;6.78;2.10;;;24.20;64.20;;;;;;4121589;28;20042;-72
2022/02/02 14:32:48;;;;;;;7.10;2.20;;;24.00;64.00;;;;;;4120890;28;20055;-68
2022/02/02 14:35:15;;;;;;;5.20;2.00;;;24.00;64.10;;;;;;4127751;28;20052;-68
2022/02/02 14:37:42;;;;;;;5.25;2.03;;;24.00;64.00;;;;;;4121338;28;20051;-68
2022/02/02 14:40:14;;;;;;;4.30;1.80;;;24.00;64.10;;;;;;4120192;28;20040;-69
2022/02/02 14:42:39;;;;;;;5.15;1.80;;;24.00;64.20;;;;;;4120743;28;20045;-68
2022/02/02 14:45:08;;;;;;;5.30;2.13;;;24.00;64.10;;;;;;4121049;28;20069;-69
2022/02/02 14:47:36;;;;;;;5.28;1.90;;;24.00;64.00;;;;;;4122001;28;20053;-69
2022/02/02 14:50:09;;;;;;;5.05;2.20;;;23.90;64.10;;;;;;4118585;28;20954;-68
2022/02/02 14:52:48;;;;;;;6.35;2.30;;;23.90;64.00;;;;;;4118294;28;20079;-68
2022/02/02 15:16:58;;;;;;;4.15;1.70;;;23.80;64.00;;;;;;4126953;28;20419;-69
2022/02/02 15:27:27;;;;;;;3.58;1.48;;;23.80;63.80;;;;;;4120127;28;20061;-69
2022/02/02 15:32:17;;;;;;;4.78;1.75;;;23.80;63.90;;;;;;4123488;28;20581;-69
2022/02/02 15:34:50;;;;;;;3.47;1.65;;;23.80;64.10;;;;;;4129379;28;20121;-67
2022/02/02 15:37:25;;;;;;;3.67;1.50;;;23.70;64.00;;;;;;4123861;28;20119;-68
2022/02/02 15:40:03;;;;;;;4.68;2.03;;;23.70;64.00;;;;;;4127018;28;20037;-67
2022/02/02 15:42:43;;;;;;;4.00;1.67;;;23.70;63.90;;;;;;4135754;28;20041;-68
2022/02/02 15:54:43;;;;;;;5.20;1.88;;;23.70;64.00;;;;;;4132537;28;20664;-67
2022/02/02 15:58:22;;;;;;;6.85;1.90;;;23.60;64.10;;;;;;4133194;28;20418;-68
2022/02/02 16:03:17;;;;;;;5.00;2.10;;;23.60;64.10;;;;;;4129456;28;20149;-70
2022/02/02 16:08:07;;;;;;;4.05;1.70;;;23.60;64.00;;;;;;4122614;28;20107;-69
2022/02/02 16:10:43;;;;;;;5.90;1.83;;;23.60;64.10;;;;;;4133093;28;20087;-66
2022/02/02 16:13:14;;;;;;;5.28;1.90;;;23.60;64.10;;;;;;4125396;28;20054;-66
2022/02/02 16:15:37;;;;;;;4.20;1.75;;;23.60;64.20;;;;;;4123226;28;20091;-67
2022/02/02 16:18:32;;;;;;;5.20;2.22;;;23.50;64.10;;;;;;4123139;28;20057;-67
2022/02/02 16:31:56;;;;;;;5.50;2.08;;;23.50;64.00;;;;;;4123730;28;20510;-67
2022/02/02 16:36:48;;;;;;;5.43;1.77;;;23.50;64.10;;;;;;4123405;28;20631;-67
2022/02/02 16:39:14;;;;;;;4.30;2.00;;;23.40;64.00;;;;;;4134593;28;20392;-67
2022/02/02 16:44:19;;;;;;;4.53;1.85;;;23.40;64.00;;;;;;4123572;28;20057;-66
2022/02/02 16:46:42;;;;;;;4.68;1.95;;;23.40;64.00;;;;;;4123536;28;20041;-67
2022/02/02 16:49:05;;;;;;;4.45;1.67;;;23.40;64.00;;;;;;4132507;28;20045;-67
2022/02/02 16:51:27;;;;;;;5.00;1.65;;;23.40;64.00;;;;;;4125633;28;20053;-67
2022/02/02 16:53:52;;;;;;;6.10;1.75;;;23.40;64.00;;;;;;4128042;28;20091;-67
2022/02/02 17:31:14;;;;;;;5.93;1.67;;;23.20;63.90;;;;;;4129659;28;20045;-68
2022/02/02 17:34:24;;;;;;;6.10;1.98;;;23.20;64.00;;;;;;4131282;28;20071;-68
2022/02/02 17:36:29;;;;;;;4.43;1.50;;;23.20;63.90;;;;;;4130834;28;20814;-67
2022/02/02 17:39:00;;;;;;;4.07;1.58;;;23.20;64.60;;;;;;4124126;28;20128;-67
2022/02/02 17:41:41;;;;;;;4.55;2.13;;;23.20;64.00;;;;;;4133973;28;20189;-69
2022/02/02 18:03:32;;;;;;;6.40;1.88;;;23.10;64.00;;;;;;4131140;28;20030;-66
2022/02/02 18:14:56;;;;;;;8.95;1.77;;;23.00;64.00;;;;;;4120488;28;20041;-67
2022/02/02 18:19:15;;;;;;;3.90;1.67;;;23.00;64.00;;;;;;4122177;28;20041;-67
2022/02/02 18:21:37;;;;;;;4.13;1.65;;;23.00;64.00;;;;;;4130514;28;20048;-68
2022/02/02 18:26:35;;;;;;;4.55;1.58;;;22.90;63.90;;;;;;4103563;28;20054;-68
2022/02/02 18:36:57;;;;;;;6.72;1.67;;;22.90;64.00;;;;;;4103422;28;20065;-67
2022/02/02 18:42:57;;;;;;;6.45;1.73;;;22.90;64.10;;;;;;4106190;28;20052;-67
2022/02/02 18:52:41;;;;;;;4.82;1.73;;;22.80;64.20;;;;;;4106278;28;20568;-67
2022/02/02 18:55:12;;;;;;;3.38;1.52;;;22.80;64.00;;;;;;4104838;28;20709;-68
2022/02/02 19:55:56;;;;;;;8.23;1.60;;;22.60;63.90;;;;;;4092388;28;20133;-65
2022/02/02 20:04:39;;;;;;;3.53;1.15;;;22.60;63.90;;;;;;4092652;28;20052;-66
2022/02/02 20:07:00;;;;;;;5.65;1.63;;;22.60;63.90;;;;;;4093887;28;20061;-66
2022/02/02 20:09:23;;;;;;;6.43;2.00;;;22.60;63.90;;;;;;4098813;28;20085;-65
2022/02/02 20:11:46;;;;;;;5.22;1.60;;;22.50;63.90;;;;;;4101754;28;20069;-65
2022/02/02 20:14:13;;;;;;;3.75;1.40;;;22.50;63.80;;;;;;4095579;28;20041;-66
2022/02/02 20:16:36;;;;;;;5.63;1.70;;;22.50;63.70;;;;;;4090777;28;20047;-66
2022/02/02 20:19:01;;;;;;;7.05;2.47;;;22.50;63.80;;;;;;4102618;28;20439;-66
2022/02/02 20:21:27;;;;;;;6.20;2.28;;;22.50;63.90;;;;;;4091421;28;20034;-67
2022/02/02 20:23:50;;;;;;;5.22;1.92;;;22.50;63.80;;;;;;4095648;28;21012;-64
2022/02/02 20:26:16;;;;;;;7.13;1.60;;;22.50;63.80;;;;;;4100517;28;20124;-66
2022/02/02 20:28:39;;;;;;;6.60;1.70;;;22.50;63.80;;;;;;4093239;28;20295;-65
2022/02/02 20:31:01;;;;;;;5.45;1.80;;;22.50;63.80;;;;;;4100090;28;20057;-66
2022/02/02 20:33:28;;;;;;;7.95;2.35;;;22.50;63.80;;;;;;4099829;28;20049;-66
2022/02/02 20:35:51;;;;;;;5.28;1.42;;;22.50;63.80;;;;;;4079955;28;20046;-65
2022/02/02 20:38:13;;;;;;;4.90;1.90;;;22.50;63.70;;;;;;4094435;28;20077;-66
2022/02/02 20:40:36;;;;;;;5.93;1.85;;;22.50;63.70;;;;;;4095261;28;20041;-66
2022/02/02 20:43:05;;;;;;;4.85;1.92;;;22.50;63.70;;;;;;4092199;28;20068;-67
2022/02/02 20:45:56;;;;;;;5.32;2.08;;;22.50;63.60;;;;;;4100258;28;20491;-66
2022/02/02 21:06:47;;;;;;;5.40;1.90;;;22.50;63.00;;;;;;4095696;28;20467;-66
2022/02/02 21:11:56;;;;;;;9.57;1.80;;;22.50;62.90;;;;;;4098654;28;20116;-67
2022/02/02 21:14:22;;;;;;;8.45;1.95;;;22.40;62.70;;;;;;4096529;28;20043;-66
2022/02/02 21:16:47;;;;;;;5.07;1.63;;;22.50;62.80;;;;;;4100153;28;22071;-66
2022/02/02 21:19:20;;;;;;;15.52;2.90;;;22.50;62.70;;;;;;4097465;28;20042;-65
2022/02/02 21:21:57;;;;;;;6.65;1.85;;;22.50;62.50;;;;;;4099694;28;20102;-64
2022/02/02 21:29:11;;;;;;;5.68;1.90;;;22.50;62.70;;;;;;4121068;28;20041;-64
2022/02/02 21:31:33;;;;;;;5.85;1.98;;;22.50;62.60;;;;;;4120165;28;20177;-66
2022/02/02 21:33:56;;;;;;;8.20;1.98;;;22.50;62.70;;;;;;4128198;28;20035;-67
2022/02/02 21:36:18;;;;;;;7.53;2.15;;;22.50;62.60;;;;;;4119448;28;20041;-67
2022/02/02 21:38:57;;;;;;;9.45;2.35;;;22.50;62.50;;;;;;4117902;28;20485;-65
2022/02/02 21:41:24;;;;;;;9.98;2.15;;;22.50;62.30;;;;;;4113120;28;20694;-66
2022/02/02 21:43:46;;;;;;;6.25;2.03;;;22.50;62.30;;;;;;4123370;28;20047;-66
2022/02/02 21:46:09;;;;;;;4.35;1.73;;;22.50;62.20;;;;;;4121459;28;20041;-66
2022/02/02 21:48:33;;;;;;;6.00;2.08;;;22.50;62.20;;;;;;4117355;28;20798;-65
2022/02/02 21:51:01;;;;;;;6.30;2.10;;;22.50;62.20;;;;;;4129807;28;20130;-67
2022/02/02 21:53:24;;;;;;;6.45;2.22;;;22.50;62.70;;;;;;4120017;28;20030;-66
2022/02/02 21:55:47;;;;;;;9.77;2.42;;;22.50;63.00;;;;;;4119428;28;20056;-65
2022/02/02 21:58:11;;;;;;;6.88;2.50;;;22.60;63.20;;;;;;4128503;28;20040;-65
2022/02/02 22:00:32;;;;;;;;;;;22.60;63.20;;;;;;4106541;28;20552;-66
2022/02/02 22:02:55;;;;;;;4.05;1.80;;;22.60;63.00;;;;;;4112909;28;20043;-65
2022/02/02 22:05:17;;;;;;;4.50;1.63;;;22.70;62.90;;;;;;4125639;28;20099;-67
2022/02/02 22:07:40;;;;;;;5.22;1.90;;;22.60;63.30;;;;;;4102506;28;20046;-66
2022/02/02 22:10:06;;;;;;;6.57;1.98;;;22.60;63.10;;;;;;4116834;28;20037;-65
2022/02/02 22:12:28;;;;;;;5.95;2.08;;;22.60;63.20;;;;;;4126908;28;20113;-66
2022/02/02 22:14:54;;;;;;;5.22;1.50;;;22.60;63.10;;;;;;4116635;28;20037;-66
2022/02/02 22:17:17;;;;;;;8.00;2.03;;;22.60;63.10;;;;;;4119065;28;20797;-65
2022/02/02 22:19:40;;;;;;;6.72;2.03;;;22.60;63.20;;;;;;4121891;28;20152;-65
2022/02/02 22:22:03;;;;;;;6.07;1.95;;;22.60;63.90;;;;;;4117697;28;20126;-65
2022/02/02 22:24:26;;;;;;;5.68;2.03;;;22.60;63.20;;;;;;4120681;28;21127;-65
2022/02/02 22:26:49;;;;;;;8.77;1.90;;;22.70;63.40;;;;;;4126707;28;20052;-64
2022/02/02 22:29:11;;;;;;;10.20;2.13;;;22.70;63.30;;;;;;4118712;28;20426;-64
2022/02/02 22:31:35;;;;;;;24.80;2.22;;;22.70;63.40;;;;;;4108307;28;20038;-64
2022/02/02 22:33:57;;;;;;;9.20;1.88;;;22.80;63.50;;;;;;4125105;28;20065;-62
2022/02/02 22:36:20;;;;;;;6.53;2.13;;;22.80;63.50;;;;;;4115557;28;20053;-64
2022/02/02 22:38:44;;;;;;;6.45;1.80;;;22.80;63.30;;;;;;4115865;28;20044;-64
2022/02/02 22:41:06;;;;;;;6.00;1.90;;;22.80;63.10;;;;;;4126101;28;20129;-63
2022/02/02 22:43:32;;;;;;;9.10;2.50;;;22.80;63.00;;;;;;4116350;28;20046;-64
2022/02/02 22:45:55;;;;;;;6.15;1.70;;;22.80;63.00;;;;;;4111838;28;20053;-63
2022/02/02 22:48:21;;;;;;;5.82;1.80;;;22.80;62.90;;;;;;4123314;28;20053;-62
2022/02/02 22:50:44;;;;;;;5.38;2.00;;;22.80;62.80;;;;;;4111693;28;20037;-63
2022/02/02 22:53:06;;;;;;;5.53;2.42;;;22.80;62.80;;;;;;4104133;28;22074;-67
2022/02/02 22:55:29;;;;;;;9.30;2.30;;;22.80;63.20;;;;;;4124958;28;20044;-68
2022/02/02 22:57:53;;;;;;;8.40;2.50;;;22.80;63.70;;;;;;4110974;28;21239;-68
2022/02/02 23:00:19;;;;;;;5.88;2.47;;;22.80;62.80;;;;;;4122023;28;22311;-67
2022/02/02 23:05:11;;;;;;;10.15;2.30;;;22.90;62.50;;;;;;4114881;28;20048;-66
2022/02/02 23:07:34;;;;;;;7.28;2.42;;;22.90;62.30;;;;;;4133526;28;20052;-65